sensor_id;sensor_type;location;lat;lon;timestamp;P1;durP1;ratioP1;P2;durP2;ratioP2
12214;SDS011;6170;42.206;24.142;2023-04-10T00:02:20;10.55;;;7.30;;
12214;SDS011;6170;42.206;24.142;2023-04-10T00:04:47;11.48;;;7.55;;
12214;SDS011;6170;42.206;24.142;2023-04-10T00:07:16;11.90;;;7.43;;
12214;SDS011;6170;42.206;24.142;2023-04-10T00:09:43;10.90;;;7.68;;
12214;SDS011;6170;42.206;24.142;2023-04-10T00:12:10;11.52;;;7.60;;
12214;SDS011;6170;42.206;24.142;2023-04-10T00:14:38;11.63;;;7.53;;
12214;SDS011;6170;42.206;24.142;2023-04-10T00:17:06;10.68;;;7.53;;
12214;SDS011;6170;42.206;24.142;2023-04-10T00:19:33;13.27;;;7.43;;
12214;SDS011;6170;42.206;24.142;2023-04-10T00:22:00;12.15;;;7.60;;
12214;SDS011;6170;42.206;24.142;2023-04-10T00:24:29;9.98;;;7.43;;
12214;SDS011;6170;42.206;24.142;2023-04-10T00:26:56;9.13;;;6.47;;
12214;SDS011;6170;42.206;24.142;2023-04-10T00:29:23;9.75;;;6.90;;
12214;SDS011;6170;42.206;24.142;2023-04-10T00:31:51;11.27;;;7.28;;
12214;SDS011;6170;42.206;24.142;2023-04-10T00:34:18;10.80;;;7.30;;
12214;SDS011;6170;42.206;24.142;2023-04-10T00:36:45;12.25;;;7.07;;
12214;SDS011;6170;42.206;24.142;2023-04-10T00:39:12;13.05;;;8.00;;
12214;SDS011;6170;42.206;24.142;2023-04-10T00:41:41;16.30;;;8.18;;
12214;SDS011;6170;42.206;24.142;2023-04-10T00:44:08;15.40;;;8.65;;
12214;SDS011;6170;42.206;24.142;2023-04-10T00:46:36;12.70;;;8.30;;
12214;SDS011;6170;42.206;24.142;2023-04-10T00:49:05;14.27;;;8.98;;
12214;SDS011;6170;42.206;24.142;2023-04-10T00:51:33;15.60;;;9.30;;
12214;SDS011;6170;42.206;24.142;2023-04-10T00:54:02;12.82;;;8.25;;
12214;SDS011;6170;42.206;24.142;2023-04-10T00:56:30;16.50;;;9.55;;
12214;SDS011;6170;42.206;24.142;2023-04-10T00:59:00;12.88;;;8.00;;
12214;SDS011;6170;42.206;24.142;2023-04-10T01:01:28;14.13;;;9.00;;
12214;SDS011;6170;42.206;24.142;2023-04-10T01:03:55;12.80;;;8.23;;
12214;SDS011;6170;42.206;24.142;2023-04-10T01:06:25;12.00;;;8.20;;
12214;SDS011;6170;42.206;24.142;2023-04-10T01:09:04;16.08;;;8.95;;
12214;SDS011;6170;42.206;24.142;2023-04-10T01:11:38;15.10;;;8.32;;
12214;SDS011;6170;42.206;24.142;2023-04-10T01:14:18;14.02;;;8.32;;
12214;SDS011;6170;42.206;24.142;2023-04-10T01:16:54;13.07;;;8.65;;
12214;SDS011;6170;42.206;24.142;2023-04-10T01:19:32;12.02;;;8.48;;
12214;SDS011;6170;42.206;24.142;2023-04-10T01:22:25;17.17;;;9.65;;
12214;SDS011;6170;42.206;24.142;2023-04-10T01:25:01;14.95;;;9.02;;
12214;SDS011;6170;42.206;24.142;2023-04-10T01:27:43;14.93;;;9.07;;
12214;SDS011;6170;42.206;24.142;2023-04-10T01:30:22;15.00;;;8.90;;
12214;SDS011;6170;42.206;24.142;2023-04-10T01:32:50;15.63;;;10.13;;
12214;SDS011;6170;42.206;24.142;2023-04-10T01:35:24;14.93;;;10.25;;
12214;SDS011;6170;42.206;24.142;2023-04-10T01:37:53;17.85;;;10.60;;
12214;SDS011;6170;42.206;24.142;2023-04-10T01:40:21;17.63;;;11.20;;
12214;SDS011;6170;42.206;24.142;2023-04-10T01:42:52;17.23;;;11.55;;
12214;SDS011;6170;42.206;24.142;2023-04-10T01:45:24;14.45;;;10.27;;
12214;SDS011;6170;42.206;24.142;2023-04-10T01:47:53;15.90;;;9.90;;
12214;SDS011;6170;42.206;24.142;2023-04-10T01:50:21;14.13;;;9.02;;
12214;SDS011;6170;42.206;24.142;2023-04-10T01:52:49;13.93;;;9.45;;
12214;SDS011;6170;42.206;24.142;2023-04-10T01:55:19;12.88;;;8.50;;
12214;SDS011;6170;42.206;24.142;2023-04-10T01:57:47;13.90;;;8.73;;
12214;SDS011;6170;42.206;24.142;2023-04-10T02:00:15;17.42;;;8.70;;
12214;SDS011;6170;42.206;24.142;2023-04-10T02:02:43;12.60;;;8.70;;
12214;SDS011;6170;42.206;24.142;2023-04-10T02:05:11;13.05;;;8.27;;
12214;SDS011;6170;42.206;24.142;2023-04-10T02:07:40;15.18;;;8.35;;
12214;SDS011;6170;42.206;24.142;2023-04-10T02:10:12;12.27;;;8.32;;
12214;SDS011;6170;42.206;24.142;2023-04-10T02:12:47;16.23;;;9.32;;
12214;SDS011;6170;42.206;24.142;2023-04-10T02:15:18;17.23;;;10.73;;
12214;SDS011;6170;42.206;24.142;2023-04-10T02:17:48;15.00;;;10.13;;
12214;SDS011;6170;42.206;24.142;2023-04-10T02:20:17;15.73;;;10.38;;
12214;SDS011;6170;42.206;24.142;2023-04-10T02:22:45;18.38;;;9.50;;
12214;SDS011;6170;42.206;24.142;2023-04-10T02:25:12;15.13;;;10.13;;
12214;SDS011;6170;42.206;24.142;2023-04-10T02:27:40;15.70;;;9.70;;
12214;SDS011;6170;42.206;24.142;2023-04-10T02:30:08;14.27;;;9.18;;
12214;SDS011;6170;42.206;24.142;2023-04-10T02:32:35;13.68;;;9.05;;
12214;SDS011;6170;42.206;24.142;2023-04-10T02:35:04;15.82;;;9.90;;
12214;SDS011;6170;42.206;24.142;2023-04-10T02:37:31;16.13;;;10.10;;
12214;SDS011;6170;42.206;24.142;2023-04-10T02:40:00;14.82;;;9.43;;
12214;SDS011;6170;42.206;24.142;2023-04-10T02:42:27;16.85;;;10.35;;
12214;SDS011;6170;42.206;24.142;2023-04-10T02:44:54;15.18;;;10.13;;
12214;SDS011;6170;42.206;24.142;2023-04-10T02:47:21;17.00;;;10.52;;
12214;SDS011;6170;42.206;24.142;2023-04-10T02:49:49;17.70;;;11.43;;
12214;SDS011;6170;42.206;24.142;2023-04-10T02:52:17;16.50;;;10.40;;
12214;SDS011;6170;42.206;24.142;2023-04-10T02:54:44;16.88;;;10.45;;
12214;SDS011;6170;42.206;24.142;2023-04-10T02:57:11;18.63;;;10.85;;
12214;SDS011;6170;42.206;24.142;2023-04-10T02:59:38;16.00;;;10.13;;
12214;SDS011;6170;42.206;24.142;2023-04-10T03:02:06;17.35;;;10.50;;
12214;SDS011;6170;42.206;24.142;2023-04-10T03:04:33;15.98;;;10.68;;
12214;SDS011;6170;42.206;24.142;2023-04-10T03:07:00;17.98;;;10.23;;
12214;SDS011;6170;42.206;24.142;2023-04-10T03:09:29;14.30;;;9.60;;
12214;SDS011;6170;42.206;24.142;2023-04-10T03:11:56;15.38;;;10.18;;
12214;SDS011;6170;42.206;24.142;2023-04-10T03:14:23;15.57;;;9.52;;
12214;SDS011;6170;42.206;24.142;2023-04-10T03:16:51;13.55;;;9.27;;
12214;SDS011;6170;42.206;24.142;2023-04-10T03:19:18;16.02;;;9.77;;
12214;SDS011;6170;42.206;24.142;2023-04-10T03:21:45;13.15;;;8.68;;
12214;SDS011;6170;42.206;24.142;2023-04-10T03:24:12;14.93;;;9.32;;
12214;SDS011;6170;42.206;24.142;2023-04-10T03:26:41;14.77;;;8.98;;
12214;SDS011;6170;42.206;24.142;2023-04-10T03:29:08;13.80;;;8.88;;
12214;SDS011;6170;42.206;24.142;2023-04-10T03:31:35;13.70;;;9.18;;
12214;SDS011;6170;42.206;24.142;2023-04-10T03:34:02;16.27;;;9.35;;
12214;SDS011;6170;42.206;24.142;2023-04-10T03:36:29;17.98;;;9.45;;
12214;SDS011;6170;42.206;24.142;2023-04-10T03:38:56;12.50;;;8.73;;
12214;SDS011;6170;42.206;24.142;2023-04-10T03:41:23;13.40;;;9.35;;
12214;SDS011;6170;42.206;24.142;2023-04-10T03:43:51;18.48;;;9.18;;
12214;SDS011;6170;42.206;24.142;2023-04-10T03:46:18;13.50;;;9.25;;
12214;SDS011;6170;42.206;24.142;2023-04-10T03:48:46;13.02;;;8.15;;
12214;SDS011;6170;42.206;24.142;2023-04-10T03:51:15;13.15;;;8.57;;
12214;SDS011;6170;42.206;24.142;2023-04-10T03:53:42;13.55;;;8.88;;
12214;SDS011;6170;42.206;24.142;2023-04-10T03:56:09;12.57;;;8.73;;
12214;SDS011;6170;42.206;24.142;2023-04-10T03:58:36;13.50;;;9.70;;
12214;SDS011;6170;42.206;24.142;2023-04-10T04:01:05;13.98;;;9.00;;
12214;SDS011;6170;42.206;24.142;2023-04-10T04:03:32;16.13;;;10.20;;
12214;SDS011;6170;42.206;24.142;2023-04-10T04:05:59;16.85;;;10.85;;
12214;SDS011;6170;42.206;24.142;2023-04-10T04:08:26;19.13;;;9.90;;
12214;SDS011;6170;42.206;24.142;2023-04-10T04:10:53;14.90;;;9.48;;
12214;SDS011;6170;42.206;24.142;2023-04-10T04:13:20;17.15;;;9.40;;
12214;SDS011;6170;42.206;24.142;2023-04-10T04:15:47;14.80;;;9.77;;
12214;SDS011;6170;42.206;24.142;2023-04-10T04:18:16;12.80;;;9.32;;
12214;SDS011;6170;42.206;24.142;2023-04-10T04:20:43;20.15;;;9.93;;
12214;SDS011;6170;42.206;24.142;2023-04-10T04:23:10;26.88;;;10.02;;
12214;SDS011;6170;42.206;24.142;2023-04-10T04:25:37;13.45;;;8.30;;
12214;SDS011;6170;42.206;24.142;2023-04-10T04:28:04;17.92;;;9.35;;
12214;SDS011;6170;42.206;24.142;2023-04-10T04:30:31;17.52;;;10.13;;
12214;SDS011;6170;42.206;24.142;2023-04-10T04:32:58;15.35;;;9.93;;
12214;SDS011;6170;42.206;24.142;2023-04-10T04:35:26;19.95;;;9.88;;
12214;SDS011;6170;42.206;24.142;2023-04-10T04:37:53;14.13;;;8.98;;
12214;SDS011;6170;42.206;24.142;2023-04-10T04:40:20;16.33;;;9.63;;
12214;SDS011;6170;42.206;24.142;2023-04-10T04:42:47;12.43;;;8.48;;
12214;SDS011;6170;42.206;24.142;2023-04-10T04:45:14;15.43;;;9.40;;
12214;SDS011;6170;42.206;24.142;2023-04-10T04:47:41;11.75;;;8.85;;
12214;SDS011;6170;42.206;24.142;2023-04-10T04:50:08;14.95;;;9.18;;
12214;SDS011;6170;42.206;24.142;2023-04-10T04:52:37;12.50;;;8.68;;
12214;SDS011;6170;42.206;24.142;2023-04-10T04:55:04;13.73;;;7.43;;
12214;SDS011;6170;42.206;24.142;2023-04-10T04:57:32;13.38;;;8.13;;
12214;SDS011;6170;42.206;24.142;2023-04-10T04:59:59;14.32;;;8.80;;
12214;SDS011;6170;42.206;24.142;2023-04-10T05:02:26;16.50;;;10.02;;
12214;SDS011;6170;42.206;24.142;2023-04-10T05:04:53;34.17;;;19.42;;
12214;SDS011;6170;42.206;24.142;2023-04-10T05:07:20;41.85;;;24.80;;
12214;SDS011;6170;42.206;24.142;2023-04-10T05:09:49;27.48;;;16.17;;
12214;SDS011;6170;42.206;24.142;2023-04-10T05:12:16;28.15;;;18.45;;
12214;SDS011;6170;42.206;24.142;2023-04-10T05:14:43;22.05;;;12.32;;
12214;SDS011;6170;42.206;24.142;2023-04-10T05:17:10;19.55;;;11.68;;
12214;SDS011;6170;42.206;24.142;2023-04-10T05:19:39;14.73;;;10.35;;
12214;SDS011;6170;42.206;24.142;2023-04-10T05:22:06;16.15;;;11.15;;
12214;SDS011;6170;42.206;24.142;2023-04-10T05:24:33;20.63;;;13.10;;
12214;SDS011;6170;42.206;24.142;2023-04-10T05:27:01;18.08;;;12.05;;
12214;SDS011;6170;42.206;24.142;2023-04-10T05:29:28;18.27;;;11.85;;
12214;SDS011;6170;42.206;24.142;2023-04-10T05:31:55;17.42;;;11.73;;
12214;SDS011;6170;42.206;24.142;2023-04-10T05:34:22;20.70;;;13.02;;
12214;SDS011;6170;42.206;24.142;2023-04-10T05:36:49;21.58;;;12.88;;
12214;SDS011;6170;42.206;24.142;2023-04-10T05:39:16;22.70;;;11.73;;
12214;SDS011;6170;42.206;24.142;2023-04-10T05:41:43;18.08;;;12.30;;
12214;SDS011;6170;42.206;24.142;2023-04-10T05:44:12;24.63;;;14.65;;
12214;SDS011;6170;42.206;24.142;2023-04-10T05:46:39;22.45;;;13.30;;
12214;SDS011;6170;42.206;24.142;2023-04-10T05:49:06;27.38;;;12.63;;
12214;SDS011;6170;42.206;24.142;2023-04-10T05:51:33;19.48;;;11.63;;
12214;SDS011;6170;42.206;24.142;2023-04-10T05:54:00;15.77;;;10.35;;
12214;SDS011;6170;42.206;24.142;2023-04-10T05:56:27;18.17;;;12.35;;
12214;SDS011;6170;42.206;24.142;2023-04-10T05:58:54;24.88;;;13.90;;
12214;SDS011;6170;42.206;24.142;2023-04-10T06:01:22;25.75;;;15.55;;
12214;SDS011;6170;42.206;24.142;2023-04-10T06:03:51;17.23;;;10.98;;
12214;SDS011;6170;42.206;24.142;2023-04-10T06:06:19;15.05;;;10.32;;
12214;SDS011;6170;42.206;24.142;2023-04-10T06:08:46;33.25;;;19.50;;
12214;SDS011;6170;42.206;24.142;2023-04-10T06:11:14;23.02;;;13.95;;
12214;SDS011;6170;42.206;24.142;2023-04-10T06:13:41;30.27;;;17.65;;
12214;SDS011;6170;42.206;24.142;2023-04-10T06:16:08;23.17;;;14.85;;
12214;SDS011;6170;42.206;24.142;2023-04-10T06:18:36;17.60;;;11.00;;
12214;SDS011;6170;42.206;24.142;2023-04-10T06:21:03;16.25;;;11.50;;
12214;SDS011;6170;42.206;24.142;2023-04-10T06:23:31;17.23;;;10.20;;
12214;SDS011;6170;42.206;24.142;2023-04-10T06:25:58;14.75;;;10.25;;
12214;SDS011;6170;42.206;24.142;2023-04-10T06:28:27;10.70;;;7.78;;
12214;SDS011;6170;42.206;24.142;2023-04-10T06:30:54;12.45;;;8.82;;
12214;SDS011;6170;42.206;24.142;2023-04-10T06:33:21;11.63;;;7.38;;
12214;SDS011;6170;42.206;24.142;2023-04-10T06:35:50;12.13;;;8.02;;
12214;SDS011;6170;42.206;24.142;2023-04-10T06:38:17;10.82;;;7.70;;
12214;SDS011;6170;42.206;24.142;2023-04-10T06:40:44;8.80;;;6.88;;
12214;SDS011;6170;42.206;24.142;2023-04-10T06:43:11;10.70;;;6.88;;
12214;SDS011;6170;42.206;24.142;2023-04-10T06:45:38;12.73;;;9.38;;
12214;SDS011;6170;42.206;24.142;2023-04-10T06:48:05;10.80;;;7.00;;
12214;SDS011;6170;42.206;24.142;2023-04-10T06:50:32;10.75;;;6.78;;
12214;SDS011;6170;42.206;24.142;2023-04-10T06:53:01;11.65;;;6.88;;
12214;SDS011;6170;42.206;24.142;2023-04-10T06:55:28;10.10;;;7.47;;
12214;SDS011;6170;42.206;24.142;2023-04-10T06:57:55;9.27;;;6.35;;
12214;SDS011;6170;42.206;24.142;2023-04-10T07:00:22;8.85;;;6.40;;
12214;SDS011;6170;42.206;24.142;2023-04-10T07:02:49;11.52;;;7.82;;
12214;SDS011;6170;42.206;24.142;2023-04-10T07:05:16;10.82;;;8.05;;
12214;SDS011;6170;42.206;24.142;2023-04-10T07:07:43;12.38;;;8.63;;
12214;SDS011;6170;42.206;24.142;2023-04-10T07:10:13;14.02;;;8.57;;
12214;SDS011;6170;42.206;24.142;2023-04-10T07:12:40;9.57;;;7.40;;
12214;SDS011;6170;42.206;24.142;2023-04-10T07:15:07;9.18;;;7.28;;
12214;SDS011;6170;42.206;24.142;2023-04-10T07:17:36;12.48;;;8.80;;
12214;SDS011;6170;42.206;24.142;2023-04-10T07:20:04;11.52;;;6.88;;
12214;SDS011;6170;42.206;24.142;2023-04-10T07:22:31;9.40;;;6.55;;
12214;SDS011;6170;42.206;24.142;2023-04-10T07:24:59;7.63;;;5.05;;
12214;SDS011;6170;42.206;24.142;2023-04-10T07:27:27;10.85;;;8.45;;
12214;SDS011;6170;42.206;24.142;2023-04-10T07:29:54;10.45;;;6.50;;
12214;SDS011;6170;42.206;24.142;2023-04-10T07:32:21;11.63;;;8.52;;
12214;SDS011;6170;42.206;24.142;2023-04-10T07:34:49;63.28;;;25.50;;
12214;SDS011;6170;42.206;24.142;2023-04-10T07:37:16;12.07;;;8.05;;
12214;SDS011;6170;42.206;24.142;2023-04-10T07:39:43;6.22;;;5.00;;
12214;SDS011;6170;42.206;24.142;2023-04-10T07:42:10;6.80;;;5.00;;
12214;SDS011;6170;42.206;24.142;2023-04-10T07:44:38;12.18;;;5.55;;
12214;SDS011;6170;42.206;24.142;2023-04-10T07:47:05;5.82;;;4.55;;
12214;SDS011;6170;42.206;24.142;2023-04-10T07:49:32;14.48;;;8.80;;
12214;SDS011;6170;42.206;24.142;2023-04-10T07:52:00;6.47;;;4.60;;
12214;SDS011;6170;42.206;24.142;2023-04-10T07:54:27;5.97;;;4.78;;
12214;SDS011;6170;42.206;24.142;2023-04-10T07:56:57;8.38;;;4.70;;
12214;SDS011;6170;42.206;24.142;2023-04-10T07:59:25;6.47;;;4.80;;
12214;SDS011;6170;42.206;24.142;2023-04-10T08:01:53;6.22;;;4.82;;
12214;SDS011;6170;42.206;24.142;2023-04-10T08:04:21;9.15;;;5.15;;
12214;SDS011;6170;42.206;24.142;2023-04-10T08:06:48;6.30;;;4.97;;
12214;SDS011;6170;42.206;24.142;2023-04-10T08:09:15;7.18;;;5.25;;
12214;SDS011;6170;42.206;24.142;2023-04-10T08:11:42;6.40;;;4.80;;
12214;SDS011;6170;42.206;24.142;2023-04-10T08:14:09;9.65;;;5.70;;
12214;SDS011;6170;42.206;24.142;2023-04-10T08:16:37;6.53;;;4.63;;
12214;SDS011;6170;42.206;24.142;2023-04-10T08:19:06;12.18;;;5.90;;
12214;SDS011;6170;42.206;24.142;2023-04-10T08:21:33;9.15;;;5.75;;
12214;SDS011;6170;42.206;24.142;2023-04-10T08:24:00;7.82;;;6.05;;
12214;SDS011;6170;42.206;24.142;2023-04-10T08:26:29;7.03;;;5.75;;
12214;SDS011;6170;42.206;24.142;2023-04-10T08:28:56;6.28;;;5.45;;
12214;SDS011;6170;42.206;24.142;2023-04-10T08:31:25;11.80;;;6.18;;
12214;SDS011;6170;42.206;24.142;2023-04-10T08:33:53;6.78;;;5.32;;
12214;SDS011;6170;42.206;24.142;2023-04-10T08:36:21;6.65;;;5.30;;
12214;SDS011;6170;42.206;24.142;2023-04-10T08:38:49;8.15;;;5.95;;
12214;SDS011;6170;42.206;24.142;2023-04-10T08:41:16;7.70;;;5.10;;
12214;SDS011;6170;42.206;24.142;2023-04-10T08:43:45;25.73;;;5.72;;
12214;SDS011;6170;42.206;24.142;2023-04-10T08:46:13;7.07;;;5.15;;
12214;SDS011;6170;42.206;24.142;2023-04-10T08:48:44;6.68;;;5.18;;
12214;SDS011;6170;42.206;24.142;2023-04-10T08:51:13;32.88;;;6.03;;
12214;SDS011;6170;42.206;24.142;2023-04-10T08:53:45;9.30;;;6.47;;
12214;SDS011;6170;42.206;24.142;2023-04-10T08:56:16;8.65;;;6.43;;
12214;SDS011;6170;42.206;24.142;2023-04-10T08:58:44;16.70;;;11.30;;
12214;SDS011;6170;42.206;24.142;2023-04-10T09:01:12;35.70;;;19.42;;
12214;SDS011;6170;42.206;24.142;2023-04-10T09:03:40;18.92;;;11.70;;
12214;SDS011;6170;42.206;24.142;2023-04-10T09:06:07;68.10;;;34.10;;
12214;SDS011;6170;42.206;24.142;2023-04-10T09:08:34;61.25;;;29.40;;
12214;SDS011;6170;42.206;24.142;2023-04-10T09:11:04;18.70;;;11.40;;
12214;SDS011;6170;42.206;24.142;2023-04-10T09:13:34;11.20;;;7.82;;
12214;SDS011;6170;42.206;24.142;2023-04-10T09:16:03;9.50;;;7.10;;
12214;SDS011;6170;42.206;24.142;2023-04-10T09:18:39;6.97;;;5.90;;
12214;SDS011;6170;42.206;24.142;2023-04-10T09:21:08;7.75;;;5.90;;
12214;SDS011;6170;42.206;24.142;2023-04-10T09:23:36;8.65;;;6.00;;
12214;SDS011;6170;42.206;24.142;2023-04-10T09:26:06;6.35;;;5.75;;
12214;SDS011;6170;42.206;24.142;2023-04-10T09:28:54;8.38;;;6.47;;
12214;SDS011;6170;42.206;24.142;2023-04-10T09:31:26;6.53;;;5.65;;
12214;SDS011;6170;42.206;24.142;2023-04-10T09:36:32;8.50;;;5.95;;
12214;SDS011;6170;42.206;24.142;2023-04-10T09:38:59;7.20;;;5.88;;
12214;SDS011;6170;42.206;24.142;2023-04-10T09:41:28;8.75;;;6.85;;
12214;SDS011;6170;42.206;24.142;2023-04-10T09:44:04;6.82;;;5.85;;
12214;SDS011;6170;42.206;24.142;2023-04-10T09:46:32;8.05;;;6.88;;
12214;SDS011;6170;42.206;24.142;2023-04-10T09:48:59;7.95;;;5.95;;
12214;SDS011;6170;42.206;24.142;2023-04-10T09:51:29;9.32;;;5.65;;
12214;SDS011;6170;42.206;24.142;2023-04-10T09:53:58;6.60;;;5.72;;
12214;SDS011;6170;42.206;24.142;2023-04-10T09:56:25;8.13;;;5.65;;
12214;SDS011;6170;42.206;24.142;2023-04-10T09:58:55;8.23;;;5.90;;
12214;SDS011;6170;42.206;24.142;2023-04-10T10:01:23;8.77;;;6.80;;
12214;SDS011;6170;42.206;24.142;2023-04-10T10:03:52;7.32;;;6.07;;
12214;SDS011;6170;42.206;24.142;2023-04-10T10:06:20;9.02;;;6.50;;
12214;SDS011;6170;42.206;24.142;2023-04-10T10:08:48;8.07;;;5.90;;
12214;SDS011;6170;42.206;24.142;2023-04-10T10:11:17;7.95;;;5.85;;
12214;SDS011;6170;42.206;24.142;2023-04-10T10:13:48;8.02;;;5.72;;
12214;SDS011;6170;42.206;24.142;2023-04-10T10:16:20;10.27;;;5.78;;
12214;SDS011;6170;42.206;24.142;2023-04-10T10:18:54;7.88;;;6.13;;
12214;SDS011;6170;42.206;24.142;2023-04-10T10:21:27;8.68;;;6.03;;
12214;SDS011;6170;42.206;24.142;2023-04-10T10:23:55;7.72;;;6.22;;
12214;SDS011;6170;42.206;24.142;2023-04-10T10:26:25;11.98;;;8.55;;
12214;SDS011;6170;42.206;24.142;2023-04-10T10:28:54;8.55;;;6.40;;
12214;SDS011;6170;42.206;24.142;2023-04-10T10:31:24;8.68;;;5.63;;
12214;SDS011;6170;42.206;24.142;2023-04-10T10:33:55;7.38;;;5.72;;
12214;SDS011;6170;42.206;24.142;2023-04-10T10:36:22;7.07;;;5.78;;
12214;SDS011;6170;42.206;24.142;2023-04-10T10:38:52;6.95;;;5.53;;
12214;SDS011;6170;42.206;24.142;2023-04-10T10:41:29;10.70;;;6.97;;
12214;SDS011;6170;42.206;24.142;2023-04-10T10:44:10;7.70;;;6.07;;
12214;SDS011;6170;42.206;24.142;2023-04-10T10:46:47;6.28;;;5.45;;
12214;SDS011;6170;42.206;24.142;2023-04-10T10:49:17;11.87;;;8.47;;
12214;SDS011;6170;42.206;24.142;2023-04-10T10:51:45;9.20;;;5.72;;
12214;SDS011;6170;42.206;24.142;2023-04-10T10:54:31;10.52;;;8.27;;
12214;SDS011;6170;42.206;24.142;2023-04-10T10:56:59;8.55;;;6.10;;
12214;SDS011;6170;42.206;24.142;2023-04-10T11:02:22;8.07;;;6.30;;
12214;SDS011;6170;42.206;24.142;2023-04-10T11:04:50;14.52;;;8.40;;
12214;SDS011;6170;42.206;24.142;2023-04-10T11:07:17;12.98;;;7.95;;
12214;SDS011;6170;42.206;24.142;2023-04-10T11:09:45;8.23;;;6.13;;
12214;SDS011;6170;42.206;24.142;2023-04-10T11:12:17;7.78;;;6.93;;
12214;SDS011;6170;42.206;24.142;2023-04-10T11:14:55;11.85;;;6.80;;
12214;SDS011;6170;42.206;24.142;2023-04-10T11:20:14;9.57;;;6.22;;
12214;SDS011;6170;42.206;24.142;2023-04-10T11:25:47;6.80;;;5.68;;
12214;SDS011;6170;42.206;24.142;2023-04-10T11:28:37;8.13;;;5.68;;
12214;SDS011;6170;42.206;24.142;2023-04-10T11:31:15;7.15;;;5.55;;
12214;SDS011;6170;42.206;24.142;2023-04-10T11:33:45;6.97;;;6.00;;
12214;SDS011;6170;42.206;24.142;2023-04-10T11:36:13;18.65;;;6.75;;
12214;SDS011;6170;42.206;24.142;2023-04-10T11:38:52;10.90;;;6.75;;
12214;SDS011;6170;42.206;24.142;2023-04-10T11:41:20;7.35;;;5.80;;
12214;SDS011;6170;42.206;24.142;2023-04-10T11:43:51;9.90;;;6.80;;
12214;SDS011;6170;42.206;24.142;2023-04-10T11:46:18;13.00;;;6.90;;
12214;SDS011;6170;42.206;24.142;2023-04-10T11:48:47;9.35;;;5.82;;
12214;SDS011;6170;42.206;24.142;2023-04-10T11:51:18;8.30;;;5.93;;
12214;SDS011;6170;42.206;24.142;2023-04-10T11:53:45;6.95;;;5.50;;
12214;SDS011;6170;42.206;24.142;2023-04-10T11:56:16;6.47;;;5.57;;
12214;SDS011;6170;42.206;24.142;2023-04-10T11:58:46;8.07;;;5.60;;
12214;SDS011;6170;42.206;24.142;2023-04-10T12:01:18;10.00;;;6.93;;
12214;SDS011;6170;42.206;24.142;2023-04-10T12:03:48;10.30;;;5.97;;
12214;SDS011;6170;42.206;24.142;2023-04-10T12:06:15;7.75;;;6.22;;
12214;SDS011;6170;42.206;24.142;2023-04-10T12:08:44;8.05;;;6.00;;
12214;SDS011;6170;42.206;24.142;2023-04-10T12:11:16;11.75;;;6.68;;
12214;SDS011;6170;42.206;24.142;2023-04-10T12:13:45;11.48;;;6.30;;
12214;SDS011;6170;42.206;24.142;2023-04-10T12:16:12;11.52;;;7.93;;
12214;SDS011;6170;42.206;24.142;2023-04-10T12:18:40;8.80;;;6.88;;
12214;SDS011;6170;42.206;24.142;2023-04-10T12:21:09;9.38;;;7.10;;
12214;SDS011;6170;42.206;24.142;2023-04-10T12:23:37;15.55;;;8.65;;
12214;SDS011;6170;42.206;24.142;2023-04-10T12:26:08;10.25;;;7.60;;
12214;SDS011;6170;42.206;24.142;2023-04-10T12:31:05;9.05;;;6.00;;
12214;SDS011;6170;42.206;24.142;2023-04-10T12:33:32;6.97;;;5.95;;
12214;SDS011;6170;42.206;24.142;2023-04-10T12:35:59;7.18;;;6.13;;
12214;SDS011;6170;42.206;24.142;2023-04-10T12:38:38;8.10;;;6.25;;
12214;SDS011;6170;42.206;24.142;2023-04-10T12:41:07;8.38;;;5.97;;
12214;SDS011;6170;42.206;24.142;2023-04-10T12:43:36;8.45;;;6.35;;
12214;SDS011;6170;42.206;24.142;2023-04-10T12:46:04;10.18;;;6.53;;
12214;SDS011;6170;42.206;24.142;2023-04-10T12:48:32;15.90;;;6.15;;
12214;SDS011;6170;42.206;24.142;2023-04-10T12:50:59;8.57;;;5.88;;
12214;SDS011;6170;42.206;24.142;2023-04-10T12:53:27;6.68;;;5.78;;
12214;SDS011;6170;42.206;24.142;2023-04-10T12:55:59;8.98;;;5.93;;
12214;SDS011;6170;42.206;24.142;2023-04-10T12:58:29;6.55;;;5.57;;
12214;SDS011;6170;42.206;24.142;2023-04-10T13:00:57;7.30;;;5.72;;
12214;SDS011;6170;42.206;24.142;2023-04-10T13:03:28;9.15;;;6.43;;
12214;SDS011;6170;42.206;24.142;2023-04-10T13:05:55;9.15;;;6.18;;
12214;SDS011;6170;42.206;24.142;2023-04-10T13:08:22;7.05;;;5.57;;
12214;SDS011;6170;42.206;24.142;2023-04-10T13:10:49;7.72;;;5.43;;
12214;SDS011;6170;42.206;24.142;2023-04-10T13:13:17;6.68;;;5.38;;
12214;SDS011;6170;42.206;24.142;2023-04-10T13:15:44;6.60;;;5.70;;
12214;SDS011;6170;42.206;24.142;2023-04-10T13:18:11;8.82;;;6.30;;
12214;SDS011;6170;42.206;24.142;2023-04-10T13:20:39;12.50;;;6.90;;
12214;SDS011;6170;42.206;24.142;2023-04-10T13:23:07;6.07;;;5.35;;
12214;SDS011;6170;42.206;24.142;2023-04-10T13:25:36;9.05;;;5.53;;
12214;SDS011;6170;42.206;24.142;2023-04-10T13:28:05;8.75;;;6.00;;
12214;SDS011;6170;42.206;24.142;2023-04-10T13:30:37;8.20;;;6.07;;
12214;SDS011;6170;42.206;24.142;2023-04-10T13:33:04;11.45;;;7.88;;
12214;SDS011;6170;42.206;24.142;2023-04-10T13:35:31;8.48;;;6.32;;
12214;SDS011;6170;42.206;24.142;2023-04-10T13:37:59;6.78;;;5.72;;
12214;SDS011;6170;42.206;24.142;2023-04-10T13:40:26;7.57;;;6.28;;
12214;SDS011;6170;42.206;24.142;2023-04-10T13:42:53;8.57;;;6.32;;
12214;SDS011;6170;42.206;24.142;2023-04-10T13:45:20;14.60;;;11.65;;
12214;SDS011;6170;42.206;24.142;2023-04-10T13:47:49;13.65;;;9.75;;
12214;SDS011;6170;42.206;24.142;2023-04-10T13:50:16;10.07;;;6.68;;
12214;SDS011;6170;42.206;24.142;2023-04-10T13:52:43;7.22;;;5.72;;
12214;SDS011;6170;42.206;24.142;2023-04-10T13:55:10;7.78;;;5.85;;
12214;SDS011;6170;42.206;24.142;2023-04-10T13:57:37;7.50;;;6.18;;
12214;SDS011;6170;42.206;24.142;2023-04-10T14:00:05;8.50;;;6.50;;
12214;SDS011;6170;42.206;24.142;2023-04-10T14:02:34;15.20;;;11.40;;
12214;SDS011;6170;42.206;24.142;2023-04-10T14:05:03;9.60;;;6.43;;
12214;SDS011;6170;42.206;24.142;2023-04-10T14:07:30;6.68;;;5.20;;
12214;SDS011;6170;42.206;24.142;2023-04-10T14:09:58;10.25;;;5.78;;
12214;SDS011;6170;42.206;24.142;2023-04-10T14:12:25;8.48;;;6.22;;
12214;SDS011;6170;42.206;24.142;2023-04-10T14:14:52;7.57;;;5.82;;
12214;SDS011;6170;42.206;24.142;2023-04-10T14:17:20;7.15;;;5.75;;
12214;SDS011;6170;42.206;24.142;2023-04-10T14:19:48;16.67;;;6.65;;
12214;SDS011;6170;42.206;24.142;2023-04-10T14:22:19;10.73;;;6.95;;
12214;SDS011;6170;42.206;24.142;2023-04-10T14:24:46;9.10;;;6.25;;
12214;SDS011;6170;42.206;24.142;2023-04-10T14:27:13;7.05;;;6.13;;
12214;SDS011;6170;42.206;24.142;2023-04-10T14:29:41;6.55;;;5.68;;
12214;SDS011;6170;42.206;24.142;2023-04-10T14:32:08;8.25;;;6.63;;
12214;SDS011;6170;42.206;24.142;2023-04-10T14:34:35;9.70;;;5.60;;
12214;SDS011;6170;42.206;24.142;2023-04-10T14:37:02;7.40;;;5.90;;
12214;SDS011;6170;42.206;24.142;2023-04-10T14:39:30;10.07;;;7.45;;
12214;SDS011;6170;42.206;24.142;2023-04-10T14:41:58;6.38;;;5.47;;
12214;SDS011;6170;42.206;24.142;2023-04-10T14:44:26;6.10;;;5.47;;
12214;SDS011;6170;42.206;24.142;2023-04-10T14:46:53;8.35;;;5.75;;
12214;SDS011;6170;42.206;24.142;2023-04-10T14:49:20;8.20;;;6.65;;
12214;SDS011;6170;42.206;24.142;2023-04-10T14:51:47;6.72;;;5.28;;
12214;SDS011;6170;42.206;24.142;2023-04-10T14:54:14;6.22;;;5.40;;
12214;SDS011;6170;42.206;24.142;2023-04-10T14:56:47;7.75;;;5.55;;
12214;SDS011;6170;42.206;24.142;2023-04-10T14:59:14;6.53;;;5.38;;
12214;SDS011;6170;42.206;24.142;2023-04-10T15:01:42;6.93;;;5.47;;